Time;durP1;ratioP1;P1;durP2;ratioP2;P2;SDS_P1;SDS_P2;PMS_P1;PMS_P2;Temp;Humidity;BMP_temperature;BMP_pressure;BME280_temperature;BME280_humidity;BME280_pressure;Samples;Min_cycle;Max_cycle;Signal;HPM_P1;HPM_P2
2023/10/10 00:00:57;;;;;;;4.90;2.97;;;17.70;99.90;;;;;;5086228;28;20445;-78
2023/10/10 00:03:27;;;;;;;4.80;2.90;;;17.70;99.90;;;;;;5086234;28;20812;-77
2023/10/10 00:05:55;;;;;;;6.07;3.50;;;17.80;99.90;;;;;;5086102;28;20455;-77
2023/10/10 00:08:27;;;;;;;3.73;2.90;;;17.80;99.90;;;;;;5085950;28;21044;-77
2023/10/10 00:10:55;;;;;;;4.30;2.60;;;17.80;99.90;;;;;;5084342;28;20445;-77
2023/10/10 00:13:23;;;;;;;4.87;2.60;;;17.80;99.90;;;;;;5084844;28;20420;-78
2023/10/10 00:15:55;;;;;;;6.93;3.40;;;17.80;99.90;;;;;;5086058;28;20525;-78
2023/10/10 00:18:21;;;;;;;4.50;3.27;;;17.80;99.90;;;;;;5086772;28;20406;-78
2023/10/10 00:21:09;;;;;;;6.30;3.67;;;17.80;99.90;;;;;;5085987;28;20491;-78
2023/10/10 00:23:42;;;;;;;5.53;3.40;;;17.80;99.90;;;;;;5084955;28;20414;-77
2023/10/10 00:26:14;;;;;;;7.57;3.40;;;17.80;99.90;;;;;;5085825;28;20786;-77
2023/10/10 00:28:44;;;;;;;7.90;3.70;;;17.80;99.90;;;;;;5085065;28;20565;-77
2023/10/10 00:31:12;;;;;;;3.87;2.83;;;17.80;99.90;;;;;;5084211;28;20450;-78
2023/10/10 00:33:38;;;;;;;6.07;3.43;;;17.80;99.90;;;;;;5084651;28;20409;-77
2023/10/10 00:36:07;;;;;;;6.37;3.13;;;17.80;99.90;;;;;;5085360;28;20961;-78
2023/10/10 00:38:33;;;;;;;5.93;3.77;;;17.80;99.90;;;;;;5085968;28;20474;-78
2023/10/10 00:41:03;;;;;;;4.10;3.00;;;17.70;99.90;;;;;;5084259;28;20477;-77
2023/10/10 00:43:31;;;;;;;5.10;3.20;;;17.80;99.90;;;;;;5086000;28;20249;-77
2023/10/10 00:45:57;;;;;;;5.07;3.47;;;17.70;99.90;;;;;;5085225;28;20469;-79
2023/10/10 00:48:29;;;;;;;6.27;3.37;;;17.70;99.90;;;;;;5086006;28;20457;-77
2023/10/10 00:51:05;;;;;;;5.40;3.33;;;17.70;99.90;;;;;;5083829;28;21004;-78
2023/10/10 00:53:35;;;;;;;5.77;3.70;;;17.70;99.90;;;;;;5085997;28;20522;-77
2023/10/10 00:56:06;;;;;;;6.43;3.47;;;17.70;99.90;;;;;;5085370;28;20486;-78
2023/10/10 00:58:38;;;;;;;5.10;3.60;;;17.70;99.90;;;;;;5084703;28;20413;-78
2023/10/10 01:01:19;;;;;;;9.20;3.53;;;17.70;99.90;;;;;;5084259;28;20433;-77
2023/10/10 01:03:50;;;;;;;4.87;3.23;;;17.70;99.90;;;;;;5084868;28;20454;-77
2023/10/10 01:06:24;;;;;;;7.00;3.20;;;17.70;99.90;;;;;;5085385;28;20445;-76
2023/10/10 01:08:54;;;;;;;6.80;3.00;;;17.70;99.90;;;;;;5085538;28;20525;-77
2023/10/10 01:11:20;;;;;;;3.60;2.60;;;17.70;99.90;;;;;;5085286;28;20437;-77
2023/10/10 01:13:46;;;;;;;4.30;3.50;;;17.70;99.90;;;;;;5085652;28;20769;-78
2023/10/10 01:16:12;;;;;;;6.63;3.30;;;17.70;99.90;;;;;;5085435;28;20583;-77
2023/10/10 01:18:57;;;;;;;4.90;2.97;;;17.70;99.90;;;;;;5085720;28;20445;-77
2023/10/10 01:21:32;;;;;;;3.90;2.93;;;17.70;99.90;;;;;;5083897;28;20485;-77
2023/10/10 01:24:07;;;;;;;4.73;3.20;;;17.70;99.90;;;;;;5084127;28;20408;-77
2023/10/10 01:26:37;;;;;;;9.77;3.97;;;17.70;99.90;;;;;;5084030;28;20705;-77
2023/10/10 01:29:25;;;;;;;4.87;3.13;;;17.60;99.90;;;;;;5084243;28;20471;-76
2023/10/10 01:31:54;;;;;;;5.20;3.40;;;17.60;99.90;;;;;;5084331;28;20994;-77
2023/10/10 01:35:15;;;;;;;4.80;3.43;;;17.60;99.90;;;;;;5085552;28;20810;-77
2023/10/10 01:39:53;;;;;;;5.63;3.23;;;17.50;99.90;;;;;;5085040;28;20472;-78
2023/10/10 01:42:30;;;;;;;10.27;4.53;;;17.50;99.90;;;;;;5084460;28;20609;-77
2023/10/10 01:44:57;;;;;;;6.33;2.93;;;17.50;99.90;;;;;;5083270;28;20461;-78
2023/10/10 01:47:34;;;;;;;5.60;3.83;;;17.50;99.90;;;;;;5086659;28;21029;-78
2023/10/10 01:50:07;;;;;;;10.90;3.70;;;17.50;99.90;;;;;;5088544;28;20531;-77
2023/10/10 01:52:36;;;;;;;4.00;3.00;;;17.50;99.90;;;;;;5089122;28;20895;-78
2023/10/10 01:55:02;;;;;;;10.20;4.03;;;17.50;99.90;;;;;;5069996;28;20825;-76
2023/10/10 01:57:27;;;;;;;6.43;4.30;;;17.50;99.90;;;;;;5087715;28;20415;-77
2023/10/10 01:59:55;;;;;;;5.93;3.60;;;17.60;99.90;;;;;;5087024;28;20185;-77
2023/10/10 02:02:23;;;;;;;7.40;3.80;;;17.60;99.90;;;;;;5087461;28;20208;-76
2023/10/10 02:04:52;;;;;;;8.47;3.30;;;17.60;99.90;;;;;;5086807;28;20957;-77
2023/10/10 02:07:25;;;;;;;4.77;3.00;;;17.60;99.90;;;;;;5088533;28;20519;-78
2023/10/10 02:12:38;;;;;;;7.13;3.50;;;17.60;99.90;;;;;;5088666;28;20487;-77
2023/10/10 02:15:11;;;;;;;7.10;3.73;;;17.60;99.90;;;;;;5086400;28;20552;-77
2023/10/10 02:17:39;;;;;;;5.43;3.47;;;17.60;99.90;;;;;;5088548;28;20425;-77
2023/10/10 02:22:47;;;;;;;7.27;4.40;;;17.60;99.90;;;;;;5088615;28;20445;-77
2023/10/10 02:27:56;;;;;;;8.70;4.13;;;17.50;99.90;;;;;;5088431;28;20817;-77
2023/10/10 02:30:34;;;;;;;8.17;3.83;;;17.50;99.90;;;;;;5086647;28;20452;-77
2023/10/10 02:33:29;;;;;;;6.63;4.00;;;17.50;99.90;;;;;;5088018;28;20421;-77
2023/10/10 02:35:56;;;;;;;6.63;3.17;;;17.50;99.90;;;;;;5087642;28;20437;-78
2023/10/10 02:38:32;;;;;;;5.70;4.07;;;17.40;99.90;;;;;;5088321;28;20530;-77
2023/10/10 02:44:09;;;;;;;9.13;4.70;;;17.40;99.90;;;;;;5087980;28;20397;-77
2023/10/10 02:46:40;;;;;;;5.87;3.57;;;17.40;99.90;;;;;;5087492;28;20409;-78
2023/10/10 02:49:30;;;;;;;10.63;4.17;;;17.40;99.90;;;;;;5087558;28;20821;-78
2023/10/10 02:51:57;;;;;;;5.67;3.43;;;17.40;99.90;;;;;;5087611;28;20574;-77
2023/10/10 02:54:34;;;;;;;7.97;4.60;;;17.40;99.90;;;;;;5087393;28;20444;-77
2023/10/10 02:59:50;;;;;;;7.53;3.90;;;17.40;99.90;;;;;;5087163;28;20430;-78
2023/10/10 03:02:28;;;;;;;13.00;4.27;;;17.40;99.90;;;;;;5088058;28;20477;-77
2023/10/10 03:07:27;;;;;;;5.70;3.40;;;17.40;99.90;;;;;;5086783;28;20552;-77
2023/10/10 03:12:43;;;;;;;7.07;4.13;;;17.40;99.90;;;;;;5087971;28;20398;-78
2023/10/10 03:15:14;;;;;;;6.80;3.97;;;17.30;99.90;;;;;;5086361;28;20532;-77
2023/10/10 03:17:48;;;;;;;7.67;4.33;;;17.30;99.90;;;;;;5087617;28;20969;-77
2023/10/10 03:25:54;;;;;;;7.87;3.97;;;17.30;99.90;;;;;;5087019;28;20472;-77
2023/10/10 03:28:29;;;;;;;6.33;3.80;;;17.30;99.90;;;;;;5085925;28;20872;-77
2023/10/10 05:25:13;;;;;;;23.17;9.00;;;16.70;99.90;;;;;;5097323;28;20454;-78
2023/10/10 05:27:42;;;;;;;22.00;10.47;;;16.60;99.90;;;;;;5106984;28;20475;-77
2023/10/10 05:30:23;;;;;;;18.90;8.43;;;16.50;99.90;;;;;;5102653;28;20816;-79
2023/10/10 05:33:01;;;;;;;16.60;8.50;;;16.50;99.90;;;;;;5092359;28;20511;-78
2023/10/10 05:35:32;;;;;;;16.90;9.63;;;16.50;99.90;;;;;;5097202;28;20953;-77
2023/10/10 05:38:00;;;;;;;15.30;8.40;;;16.40;99.90;;;;;;5094924;28;20818;-78
2023/10/10 05:40:33;;;;;;;14.60;8.50;;;16.30;99.90;;;;;;5097248;28;20445;-77
2023/10/10 05:42:59;;;;;;;19.40;8.53;;;16.30;99.90;;;;;;5097260;28;20439;-77
2023/10/10 05:45:25;;;;;;;14.57;8.73;;;16.20;99.90;;;;;;5092836;28;20439;-78
2023/10/10 05:47:51;;;;;;;20.07;9.03;;;16.20;99.90;;;;;;5094398;28;20488;-78
2023/10/10 05:50:18;;;;;;;12.30;8.87;;;16.20;99.90;;;;;;5095098;28;20204;-77
2023/10/10 05:52:44;;;;;;;19.63;9.10;;;16.10;99.90;;;;;;5095532;28;20493;-77
2023/10/10 05:55:11;;;;;;;18.77;8.30;;;16.10;99.90;;;;;;5090152;28;21141;-78
2023/10/10 05:57:40;;;;;;;16.07;9.40;;;16.10;99.90;;;;;;5094632;28;20605;-78
2023/10/10 06:00:10;;;;;;;15.03;8.70;;;16.00;99.90;;;;;;5096466;28;20586;-78
2023/10/10 06:02:43;;;;;;;14.63;9.23;;;16.00;99.90;;;;;;5087633;28;20436;-77
2023/10/10 06:05:09;;;;;;;14.83;8.47;;;16.00;99.90;;;;;;5095469;28;20429;-77
2023/10/10 06:07:42;;;;;;;14.53;7.93;;;15.90;99.90;;;;;;5100927;28;20483;-78
2023/10/10 06:10:15;;;;;;;13.53;9.40;;;15.90;99.90;;;;;;5089801;28;20444;-77
2023/10/10 06:12:48;;;;;;;18.70;8.97;;;15.90;99.90;;;;;;5094687;28;20439;-79
2023/10/10 06:15:18;;;;;;;15.50;8.10;;;15.90;99.90;;;;;;5090466;28;20479;-77
2023/10/10 06:17:44;;;;;;;15.97;9.23;;;15.90;99.90;;;;;;5096466;28;20436;-78
2023/10/10 06:20:16;;;;;;;16.93;7.87;;;15.80;99.90;;;;;;5088055;28;20440;-76
2023/10/10 06:22:44;;;;;;;18.07;9.37;;;15.80;99.90;;;;;;5092761;28;20436;-76
2023/10/10 06:25:11;;;;;;;20.00;8.90;;;15.80;99.90;;;;;;5098225;28;20441;-77
2023/10/10 06:27:40;;;;;;;16.43;9.40;;;15.80;99.90;;;;;;5100631;28;20471;-78
2023/10/10 06:30:17;;;;;;;12.83;8.77;;;15.80;99.90;;;;;;5103072;28;20420;-78
2023/10/10 06:32:47;;;;;;;18.83;9.93;;;15.70;99.90;;;;;;5081954;28;20539;-77
2023/10/10 06:37:42;;;;;;;18.40;9.30;;;15.70;99.90;;;;;;5102794;28;20409;-77
2023/10/10 06:40:11;;;;;;;15.77;9.10;;;15.70;99.90;;;;;;5107761;27;20511;-77
2023/10/10 06:42:38;;;;;;;15.90;9.03;;;15.70;99.90;;;;;;5102204;28;20932;-78
2023/10/10 06:45:07;;;;;;;19.50;9.73;;;15.70;99.90;;;;;;5098289;28;20452;-78
2023/10/10 06:47:43;;;;;;;15.13;8.03;;;15.70;99.90;;;;;;5102157;28;20456;-78
2023/10/10 06:50:12;;;;;;;18.43;8.97;;;15.60;99.90;;;;;;5092895;28;20906;-78
2023/10/10 06:52:39;;;;;;;19.40;9.40;;;15.60;99.90;;;;;;5097340;28;20432;-78
2023/10/10 06:55:10;;;;;;;18.23;9.60;;;15.60;99.90;;;;;;5092974;28;20535;-75
2023/10/10 06:57:41;;;;;;;17.20;9.17;;;15.60;99.90;;;;;;5084783;28;20436;-80
2023/10/10 07:02:48;;;;;;;17.17;9.60;;;15.60;99.90;;;;;;5105886;28;20439;-81
2023/10/10 07:05:19;;;;;;;20.40;9.27;;;15.50;99.90;;;;;;5101315;28;20496;-84
2023/10/10 07:07:53;;;;;;;15.77;8.80;;;15.50;99.90;;;;;;5093320;28;20480;-85
2023/10/10 07:10:26;;;;;;;20.53;9.20;;;15.50;99.90;;;;;;5086466;28;20471;-79
2023/10/10 07:12:58;;;;;;;14.40;9.00;;;15.60;99.90;;;;;;5088332;28;21021;-86
2023/10/10 07:15:34;;;;;;;17.73;9.80;;;15.70;99.90;;;;;;5092043;28;20903;-85
2023/10/10 07:18:14;;;;;;;19.00;10.30;;;15.80;99.90;;;;;;5084037;28;20417;-84
2023/10/10 07:23:37;;;;;;;13.73;8.90;;;15.90;99.90;;;;;;5095852;28;20804;-78
2023/10/10 07:26:07;;;;;;;14.53;8.83;;;16.00;99.90;;;;;;5094368;28;20482;-84
2023/10/10 07:28:47;;;;;;;14.30;8.80;;;16.10;99.90;;;;;;5089357;28;20787;-84
2023/10/10 07:31:17;;;;;;;13.13;9.80;;;16.10;99.90;;;;;;5091217;28;20577;-78
2023/10/10 07:33:44;;;;;;;17.23;9.60;;;16.20;99.90;;;;;;5093763;28;20526;-84
2023/10/10 07:36:13;;;;;;;14.30;8.37;;;16.20;99.90;;;;;;5091796;28;20525;-79
2023/10/10 07:38:39;;;;;;;16.17;8.67;;;16.20;99.90;;;;;;5090489;28;20496;-84
2023/10/10 07:41:05;;;;;;;12.50;7.67;;;16.30;99.90;;;;;;5093506;28;20479;-84
2023/10/10 07:43:34;;;;;;;10.23;7.47;;;16.30;99.90;;;;;;5107130;27;20715;-85
2023/10/10 07:46:21;;;;;;;16.40;8.43;;;16.40;99.90;;;;;;5094181;28;20743;-84
2023/10/10 07:48:53;;;;;;;13.27;6.40;;;16.40;99.90;;;;;;5086440;28;20494;-84
2023/10/10 07:51:28;;;;;;;17.40;8.50;;;16.40;99.90;;;;;;5091732;28;20474;-80
2023/10/10 07:54:02;;;;;;;13.37;8.40;;;16.40;99.90;;;;;;5092969;28;20511;-78
2023/10/10 07:56:31;;;;;;;13.23;8.23;;;16.40;99.90;;;;;;5092863;28;20782;-79
2023/10/10 07:58:57;;;;;;;12.90;7.77;;;16.50;99.90;;;;;;5093635;28;20436;-84
2023/10/10 08:01:23;;;;;;;13.80;7.90;;;16.50;99.90;;;;;;5085279;28;20600;-84
2023/10/10 08:03:49;;;;;;;8.47;6.80;;;16.60;99.90;;;;;;5084966;28;20498;-87
2023/10/10 08:06:18;;;;;;;10.90;6.33;;;16.60;99.90;;;;;;5087561;28;21073;-84
2023/10/10 08:08:44;;;;;;;10.83;7.50;;;16.70;99.90;;;;;;5088073;28;20698;-78
2023/10/10 08:11:13;;;;;;;9.80;6.13;;;16.70;99.90;;;;;;5088164;28;20786;-78
2023/10/10 08:13:40;;;;;;;11.20;7.50;;;16.70;99.90;;;;;;5078283;28;20523;-78
2023/10/10 08:16:06;;;;;;;12.47;7.60;;;16.70;99.90;;;;;;5078092;28;20676;-77
2023/10/10 08:21:14;;;;;;;12.53;7.60;;;16.70;99.90;;;;;;5086931;28;20443;-85
2023/10/10 08:23:46;;;;;;;11.40;7.80;;;16.70;99.90;;;;;;5097718;28;20584;-79
2023/10/10 08:26:18;;;;;;;12.80;7.40;;;16.70;99.90;;;;;;5084129;28;21069;-85
2023/10/10 08:28:48;;;;;;;11.07;6.87;;;16.80;99.90;;;;;;5086224;28;20480;-79
2023/10/10 08:31:15;;;;;;;9.80;6.53;;;16.90;99.90;;;;;;5088068;28;20455;-79
2023/10/10 08:33:45;;;;;;;11.00;7.87;;;16.90;99.90;;;;;;5086137;28;20437;-79
2023/10/10 08:36:32;;;;;;;11.97;6.87;;;17.00;99.90;;;;;;5086933;28;20801;-80
2023/10/10 08:39:16;;;;;;;9.27;6.50;;;17.10;99.90;;;;;;5086998;28;20694;-84
2023/10/10 08:41:42;;;;;;;10.23;7.67;;;17.10;99.90;;;;;;5109759;27;20487;-79
2023/10/10 08:44:17;;;;;;;10.73;6.93;;;17.10;99.90;;;;;;5084728;28;20838;-79
2023/10/10 08:46:47;;;;;;;10.30;6.60;;;17.10;99.90;;;;;;5085294;28;21035;-85
2023/10/10 08:49:14;;;;;;;10.03;6.37;;;17.10;99.90;;;;;;5093967;28;20483;-79
2023/10/10 08:51:42;;;;;;;10.83;6.93;;;17.10;99.90;;;;;;5095292;28;20419;-78
2023/10/10 08:54:12;;;;;;;15.03;7.37;;;17.10;99.90;;;;;;5084932;28;20429;-79
2023/10/10 08:57:03;;;;;;;11.70;8.70;;;17.10;99.90;;;;;;5085752;28;20420;-84
2023/10/10 08:59:32;;;;;;;16.40;8.57;;;17.10;99.90;;;;;;5092063;28;20514;-85
2023/10/10 09:02:09;;;;;;;15.13;8.07;;;17.10;99.90;;;;;;5100782;28;20434;-78
2023/10/10 09:04:35;;;;;;;11.57;6.47;;;17.10;99.90;;;;;;5087701;28;20464;-78
2023/10/10 09:07:08;;;;;;;13.13;7.63;;;17.10;99.90;;;;;;5093794;28;20432;-84
2023/10/10 09:09:37;;;;;;;13.83;8.13;;;17.10;99.90;;;;;;5094573;28;20593;-78
2023/10/10 09:12:14;;;;;;;11.80;7.00;;;17.10;99.90;;;;;;5096528;28;20427;-84
2023/10/10 09:14:49;;;;;;;10.50;6.50;;;17.10;99.90;;;;;;5097237;28;20436;-79
2023/10/10 09:17:35;;;;;;;8.57;6.33;;;17.10;99.90;;;;;;5085825;28;20448;-84
2023/10/10 09:20:22;;;;;;;8.80;6.47;;;17.10;99.90;;;;;;5084970;28;20980;-78
2023/10/10 09:22:51;;;;;;;11.30;7.07;;;17.20;99.90;;;;;;5098787;28;20455;-85
2023/10/10 09:25:26;;;;;;;11.17;7.30;;;17.20;99.90;;;;;;5091498;28;20443;-78
2023/10/10 09:28:08;;;;;;;14.33;7.47;;;17.30;99.90;;;;;;5082230;28;20480;-84
2023/10/10 09:30:40;;;;;;;14.03;7.23;;;17.40;99.90;;;;;;5080993;28;20437;-78
2023/10/10 09:36:09;;;;;;;8.40;5.93;;;17.30;99.90;;;;;;5093506;28;20997;-85
2023/10/10 09:38:36;;;;;;;9.87;7.00;;;17.40;99.90;;;;;;5093054;28;20440;-79
2023/10/10 09:41:26;;;;;;;10.40;6.33;;;17.40;99.90;;;;;;5095889;28;20433;-85
2023/10/10 10:09:37;;;;;;;7.87;5.90;;;18.10;99.90;;;;;;5089245;28;21244;-79
2023/10/10 10:12:30;;;;;;;9.10;6.90;;;18.10;99.90;;;;;;5099156;28;20473;-85
2023/10/10 10:15:18;;;;;;;10.63;6.47;;;18.20;99.90;;;;;;5093834;28;20974;-85
2023/10/10 10:17:56;;;;;;;9.00;7.07;;;18.20;99.90;;;;;;5089632;28;20441;-80
2023/10/10 10:20:49;;;;;;;11.20;6.70;;;18.30;99.90;;;;;;5097018;28;20454;-80
2023/10/10 10:23:34;;;;;;;11.20;7.10;;;18.40;99.90;;;;;;5098667;28;20460;-85
2023/10/10 10:26:09;;;;;;;12.83;7.90;;;18.40;99.90;;;;;;5112543;27;20495;-85
2023/10/10 10:28:36;;;;;;;14.43;7.20;;;18.40;99.90;;;;;;5087718;28;20878;-80
2023/10/10 10:31:07;;;;;;;8.60;6.13;;;18.40;99.90;;;;;;5089617;28;20515;-85
2023/10/10 10:33:52;;;;;;;9.70;6.07;;;18.40;99.90;;;;;;5090525;28;20677;-85
2023/10/10 10:36:18;;;;;;;8.33;6.23;;;18.40;99.90;;;;;;5092661;28;20469;-79
2023/10/10 10:39:19;;;;;;;7.57;6.57;;;18.40;99.90;;;;;;5094119;28;20587;-85
2023/10/10 10:41:43;;;;;;;6.50;5.80;;;18.50;99.90;;;;;;5089635;28;20402;-80
2023/10/10 10:44:12;;;;;;;7.60;6.20;;;18.60;99.90;;;;;;5091521;28;20415;-80
2023/10/10 10:46:40;;;;;;;9.73;6.27;;;18.70;99.90;;;;;;5091236;28;20434;-85
2023/10/10 10:49:12;;;;;;;7.83;5.63;;;18.70;99.90;;;;;;5107192;27;20471;-80
2023/10/10 10:51:44;;;;;;;8.17;6.50;;;18.80;99.90;;;;;;5088373;28;20751;-86
2023/10/10 10:54:35;;;;;;;8.70;6.77;;;18.80;99.90;;;;;;5090143;28;20495;-85
2023/10/10 10:57:01;;;;;;;7.97;6.57;;;18.80;99.90;;;;;;5087646;28;21019;-79
2023/10/10 10:59:35;;;;;;;8.73;6.90;;;18.80;99.90;;;;;;5095676;28;20447;-83
2023/10/10 11:02:15;;;;;;;8.80;6.40;;;18.80;99.90;;;;;;5087599;28;20445;-85
2023/10/10 11:04:49;;;;;;;7.17;6.10;;;18.80;99.90;;;;;;5091006;28;20962;-85
2023/10/10 11:07:26;;;;;;;7.70;6.13;;;18.80;99.90;;;;;;5090053;28;21080;-84
2023/10/10 11:10:06;;;;;;;6.83;6.13;;;18.90;99.90;;;;;;5087447;28;20743;-84
2023/10/10 11:12:32;;;;;;;9.07;6.70;;;18.90;99.90;;;;;;5085487;28;21722;-84
2023/10/10 11:15:08;;;;;;;7.90;5.37;;;18.90;99.90;;;;;;5094601;28;20960;-83
2023/10/10 11:17:38;;;;;;;6.53;5.43;;;18.90;99.90;;;;;;5091556;28;20488;-84
2023/10/10 11:20:26;;;;;;;6.70;5.43;;;19.00;99.90;;;;;;5090175;28;20947;-84
2023/10/10 11:23:06;;;;;;;7.13;5.37;;;19.00;99.90;;;;;;5091613;28;20440;-84
2023/10/10 11:25:41;;;;;;;8.77;6.80;;;19.10;99.90;;;;;;5090222;28;20496;-84
2023/10/10 11:28:21;;;;;;;6.87;6.17;;;19.10;99.90;;;;;;5081374;28;20482;-78
2023/10/10 11:30:49;;;;;;;7.93;5.40;;;19.10;99.90;;;;;;5084684;28;20520;-84
2023/10/10 11:33:17;;;;;;;8.60;6.20;;;19.10;99.90;;;;;;5093384;28;20767;-84
2023/10/10 11:35:48;;;;;;;7.33;5.37;;;19.10;99.90;;;;;;5101622;28;20683;-83
2023/10/10 11:38:17;;;;;;;7.27;5.40;;;19.20;99.90;;;;;;5100438;28;20593;-79
2023/10/10 11:40:52;;;;;;;11.20;6.57;;;19.20;99.90;;;;;;5101251;28;20455;-80
2023/10/10 11:43:19;;;;;;;6.87;5.60;;;19.30;99.90;;;;;;5096156;28;20525;-79
2023/10/10 11:45:53;;;;;;;6.50;5.30;;;19.30;99.90;;;;;;5103853;28;20429;-79
2023/10/10 11:48:18;;;;;;;8.73;5.53;;;19.30;99.90;;;;;;5089581;28;20524;-79
2023/10/10 11:50:51;;;;;;;7.63;5.17;;;19.30;99.90;;;;;;5090856;28;20441;-84
2023/10/10 11:53:23;;;;;;;8.37;5.70;;;19.20;99.90;;;;;;5091199;28;20519;-84
2023/10/10 11:55:52;;;;;;;6.87;5.77;;;19.30;99.90;;;;;;5090603;28;20503;-84
2023/10/10 11:58:18;;;;;;;6.57;5.53;;;19.30;99.90;;;;;;5090741;28;20446;-79
2023/10/10 12:01:05;;;;;;;9.43;6.40;;;19.40;99.90;;;;;;5090929;28;20512;-84
2023/10/10 12:06:21;;;;;;;7.80;5.90;;;19.30;99.90;;;;;;5090141;28;20444;-84
2023/10/10 12:08:53;;;;;;;7.47;6.10;;;19.40;99.90;;;;;;5099136;28;20915;-84
2023/10/10 12:11:20;;;;;;;10.10;6.13;;;19.40;99.90;;;;;;5099080;28;20812;-84
2023/10/10 12:13:50;;;;;;;8.33;6.10;;;19.40;99.90;;;;;;5083996;28;20553;-85
2023/10/10 12:16:17;;;;;;;7.87;6.00;;;19.50;99.90;;;;;;5100435;28;20520;-80
2023/10/10 12:18:52;;;;;;;8.10;6.07;;;19.50;99.90;;;;;;5096562;28;20447;-79
2023/10/10 12:21:21;;;;;;;6.97;5.50;;;19.40;99.90;;;;;;5086341;28;20800;-84
2023/10/10 12:23:55;;;;;;;9.20;6.70;;;19.40;99.90;;;;;;5103897;28;20454;-84
2023/10/10 12:26:24;;;;;;;7.00;6.30;;;19.30;99.90;;;;;;5102518;28;20427;-79
2023/10/10 12:28:53;;;;;;;10.30;6.40;;;19.30;99.90;;;;;;5081454;28;20949;-84
2023/10/10 12:31:21;;;;;;;9.10;5.80;;;19.30;99.90;;;;;;5097582;28;20439;-80
2023/10/10 12:33:48;;;;;;;7.97;5.37;;;19.30;99.90;;;;;;5101025;28;20438;-80
2023/10/10 12:36:22;;;;;;;10.40;7.70;;;19.40;99.90;;;;;;5102519;28;20427;-85
2023/10/10 12:38:48;;;;;;;10.20;6.97;;;19.40;99.90;;;;;;5097421;28;20533;-79
2023/10/10 12:41:20;;;;;;;8.40;6.60;;;19.40;99.90;;;;;;5096259;28;20529;-80
2023/10/10 12:43:46;;;;;;;11.07;7.07;;;19.40;99.90;;;;;;5100542;28;20542;-84
2023/10/10 12:46:16;;;;;;;25.43;13.43;;;19.50;99.90;;;;;;5093856;28;20817;-80
2023/10/10 12:48:46;;;;;;;9.73;6.97;;;19.60;99.90;;;;;;5087246;28;20992;-80
2023/10/10 12:51:12;;;;;;;8.47;6.10;;;19.60;99.90;;;;;;5085566;28;20435;-85
2023/10/10 12:53:39;;;;;;;8.00;6.20;;;19.70;99.90;;;;;;5093663;28;20462;-80
2023/10/10 12:56:16;;;;;;;7.80;6.47;;;19.70;99.90;;;;;;5088516;28;20470;-79
2023/10/10 12:59:03;;;;;;;10.07;7.23;;;19.80;99.90;;;;;;5080758;28;20458;-84
2023/10/10 13:01:32;;;;;;;8.77;5.37;;;19.80;99.90;;;;;;5097683;28;20904;-85
2023/10/10 13:03:59;;;;;;;8.50;6.07;;;19.90;99.90;;;;;;5099647;28;20453;-85
2023/10/10 13:06:25;;;;;;;7.93;5.93;;;19.90;99.90;;;;;;5091680;28;20487;-85
2023/10/10 13:11:20;;;;;;;8.40;6.30;;;19.90;99.90;;;;;;5085825;28;20195;-84
2023/10/10 13:13:51;;;;;;;6.47;5.20;;;20.00;99.90;;;;;;5087227;28;20475;-85
2023/10/10 13:16:24;;;;;;;5.97;5.37;;;20.00;99.90;;;;;;5086244;28;20439;-80
2023/10/10 13:18:56;;;;;;;7.93;5.30;;;20.00;99.90;;;;;;5096133;28;20965;-79
2023/10/10 13:21:23;;;;;;;8.63;5.73;;;19.90;99.90;;;;;;5092948;28;20471;-85
2023/10/10 13:23:50;;;;;;;10.30;5.93;;;19.90;99.90;;;;;;5087105;28;20428;-80
2023/10/10 13:26:17;;;;;;;5.83;5.13;;;19.90;99.90;;;;;;5084838;28;20833;-85
2023/10/10 13:28:46;;;;;;;6.27;5.30;;;19.90;99.90;;;;;;5092383;28;20495;-80
2023/10/10 13:31:16;;;;;;;7.60;6.23;;;19.90;99.90;;;;;;5091991;28;20804;-85
2023/10/10 13:33:43;;;;;;;6.50;5.00;;;19.90;99.90;;;;;;5088484;28;20423;-80
2023/10/10 13:36:11;;;;;;;5.17;4.10;;;19.90;99.90;;;;;;5087785;28;20587;-84
2023/10/10 13:38:46;;;;;;;7.53;5.47;;;19.90;99.90;;;;;;5090780;28;20428;-80
2023/10/10 13:41:12;;;;;;;6.63;4.87;;;19.90;99.90;;;;;;5105735;28;20486;-80
2023/10/10 13:43:41;;;;;;;9.60;5.83;;;20.00;99.90;;;;;;5095175;28;20882;-80
2023/10/10 13:46:07;;;;;;;8.53;5.63;;;20.00;99.90;;;;;;5091394;28;20223;-85
2023/10/10 13:48:36;;;;;;;6.87;4.97;;;20.00;99.90;;;;;;5097154;28;20499;-85
2023/10/10 13:51:04;;;;;;;10.53;5.60;;;20.00;99.90;;;;;;5082487;28;20555;-80
2023/10/10 13:53:31;;;;;;;10.53;6.23;;;20.00;99.90;;;;;;5088120;28;20427;-85
2023/10/10 13:56:01;;;;;;;6.90;5.17;;;20.10;99.90;;;;;;5087447;28;20432;-79
2023/10/10 13:58:27;;;;;;;6.50;5.60;;;20.10;99.90;;;;;;5089206;28;20421;-80
2023/10/10 14:00:52;;;;;;;8.53;5.73;;;20.20;99.90;;;;;;5088788;28;20975;-80
2023/10/10 14:03:35;;;;;;;9.23;5.60;;;20.20;99.90;;;;;;5093941;28;20343;-79
2023/10/10 14:06:04;;;;;;;5.90;4.63;;;20.20;99.90;;;;;;5083488;28;20304;-79
2023/10/10 14:08:30;;;;;;;9.13;6.13;;;20.10;99.90;;;;;;5086428;28;20479;-83
2023/10/10 14:10:59;;;;;;;8.70;5.50;;;20.20;99.90;;;;;;5088654;28;20929;-84
2023/10/10 14:13:29;;;;;;;6.23;5.37;;;20.10;99.90;;;;;;5094603;28;20778;-79
2023/10/10 14:15:56;;;;;;;6.63;5.20;;;20.20;99.90;;;;;;5089048;28;20493;-85
2023/10/10 14:18:23;;;;;;;7.40;5.87;;;20.20;99.90;;;;;;5088204;28;20438;-85
2023/10/10 14:20:50;;;;;;;8.53;5.70;;;20.20;99.90;;;;;;5091519;28;20448;-79
2023/10/10 14:23:19;;;;;;;6.93;5.60;;;20.30;99.90;;;;;;5091543;28;20436;-84
2023/10/10 14:25:47;;;;;;;8.30;5.17;;;20.30;99.90;;;;;;5090504;28;20501;-79
2023/10/10 14:28:16;;;;;;;7.50;5.40;;;20.30;99.90;;;;;;5091935;28;20539;-79
2023/10/10 14:30:49;;;;;;;6.90;5.00;;;20.40;99.90;;;;;;5092903;28;20713;-85
2023/10/10 14:33:18;;;;;;;6.43;5.13;;;20.40;99.90;;;;;;5098358;28;20647;-79
2023/10/10 14:35:46;;;;;;;6.30;4.90;;;20.40;99.90;;;;;;5087695;28;20441;-84
2023/10/10 14:38:15;;;;;;;8.20;5.67;;;20.50;99.90;;;;;;5089468;28;20436;-80
2023/10/10 14:40:43;;;;;;;5.97;5.00;;;20.50;99.90;;;;;;5088197;28;20473;-79
2023/10/10 14:43:11;;;;;;;6.27;4.87;;;20.50;99.90;;;;;;5089170;28;20424;-80
2023/10/10 14:45:42;;;;;;;8.00;5.47;;;20.50;99.90;;;;;;5089822;28;20436;-84
2023/10/10 14:48:09;;;;;;;7.10;4.57;;;20.50;99.90;;;;;;5089149;28;20472;-85
2023/10/10 14:50:41;;;;;;;7.00;5.40;;;20.50;99.90;;;;;;5087458;28;20850;-87
2023/10/10 14:53:09;;;;;;;6.77;5.03;;;20.50;99.90;;;;;;5091824;28;20587;-79
2023/10/10 14:55:44;;;;;;;5.70;4.40;;;20.50;99.90;;;;;;5093325;28;20443;-79
2023/10/10 14:58:12;;;;;;;6.93;5.03;;;20.60;99.90;;;;;;5088793;28;20479;-81
2023/10/10 15:00:43;;;;;;;6.63;4.57;;;20.50;99.90;;;;;;5078667;28;20973;-85
2023/10/10 15:03:13;;;;;;;5.67;5.07;;;20.50;99.90;;;;;;5094281;28;20460;-85
2023/10/10 15:05:51;;;;;;;8.20;6.10;;;20.60;99.90;;;;;;5080371;28;20539;-79
2023/10/10 15:08:21;;;;;;;6.73;6.00;;;20.60;99.90;;;;;;5087401;28;20466;-79
2023/10/10 15:11:58;;;;;;;9.03;5.10;;;20.60;99.90;;;;;;5133381;27;20585;-84
2023/10/10 15:14:25;;;;;;;7.20;4.60;;;20.60;99.90;;;;;;5106396;28;20429;-85
2023/10/10 15:16:51;;;;;;;7.10;5.37;;;20.60;99.90;;;;;;5080451;28;20445;-84
2023/10/10 15:19:17;;;;;;;6.27;5.47;;;20.60;99.90;;;;;;5091195;28;20420;-79
2023/10/10 15:21:48;;;;;;;6.37;5.20;;;20.60;99.90;;;;;;5098160;28;20428;-83
2023/10/10 15:24:15;;;;;;;6.03;5.23;;;20.60;99.90;;;;;;5098394;28;20417;-85
2023/10/10 15:26:45;;;;;;;7.53;5.27;;;20.60;99.90;;;;;;5088965;28;20503;-85
2023/10/10 15:29:12;;;;;;;8.03;5.47;;;20.60;99.90;;;;;;5080297;28;20817;-79
2023/10/10 15:31:40;;;;;;;7.40;5.97;;;20.60;99.90;;;;;;5087220;28;20525;-85
2023/10/10 15:34:06;;;;;;;5.23;4.73;;;20.60;99.90;;;;;;5087693;28;20438;-85
2023/10/10 15:36:33;;;;;;;7.60;5.33;;;20.50;99.90;;;;;;5088560;28;20436;-79
2023/10/10 15:39:06;;;;;;;6.97;5.83;;;20.50;99.90;;;;;;5085887;28;20511;-84
2023/10/10 15:41:34;;;;;;;6.70;5.23;;;20.50;99.90;;;;;;5089000;28;20435;-80
2023/10/10 15:44:03;;;;;;;7.57;5.73;;;20.50;99.90;;;;;;5092187;28;20420;-86
2023/10/10 15:46:34;;;;;;;9.97;5.60;;;20.50;99.90;;;;;;5093548;28;21965;-80
2023/10/10 15:49:00;;;;;;;7.00;5.30;;;20.40;99.90;;;;;;5078380;28;20718;-81
2023/10/10 15:51:27;;;;;;;11.03;9.20;;;20.40;99.90;;;;;;5076606;28;20471;-85
2023/10/10 15:53:54;;;;;;;9.53;6.60;;;20.40;99.90;;;;;;5084793;28;20457;-79
2023/10/10 15:56:27;;;;;;;9.47;6.33;;;20.30;99.90;;;;;;5077467;28;20472;-80
2023/10/10 15:58:53;;;;;;;7.57;6.80;;;20.20;99.90;;;;;;5079085;28;20662;-86
2023/10/10 16:01:43;;;;;;;9.23;6.70;;;20.20;99.90;;;;;;5082137;28;20846;-80
2023/10/10 16:04:14;;;;;;;10.43;7.00;;;20.20;99.90;;;;;;5090107;28;20428;-83
2023/10/10 16:06:42;;;;;;;7.60;6.27;;;20.10;99.90;;;;;;5077457;28;20437;-87
2023/10/10 16:09:11;;;;;;;9.10;6.23;;;20.10;99.90;;;;;;5081336;28;20739;-87
2023/10/10 16:11:40;;;;;;;9.57;6.80;;;20.00;99.90;;;;;;5080835;28;20489;-81